Kenockee, Michigan
Current Conditions -  °F | °C
As of 4:17 AM on Monday 24 Nov 2014 (Local Time) from KPHN Reporting Station
Light Rain Light Rain  
Wind Chill: 54°   Ceiling: 800
Heat Index: 54°   Visibility: 10mi
Dew Point: 54°   Wind: 21mph
Humidity: 100%   Direction: 170°S
Pressure: 29.06"   Gusts: 29mph
Location:  43.076°N, 82.6968°W
Report Text: KPHN 240917Z AUTO 17018G25KT 10SM -RA OVC008 12/12 A2906 RMK AO2
Loading
Personal Weather Stations






























Interactive Weather Map New forecast layout! Learn more

10-Day Weather Forecast

Advertisements
Track Severe Weather on mobile